createdAt,value
2022-07-27T00:01:50.830Z,16.66
2022-07-27T00:04:21.695Z,16.72
2022-07-27T00:06:48.989Z,16.87
2022-07-27T00:09:16.300Z,17.12
2022-07-27T00:11:43.228Z,17.19
2022-07-27T00:14:10.183Z,17.18
2022-07-27T00:16:37.444Z,16.81
2022-07-27T00:19:04.558Z,16.82
2022-07-27T00:21:42.402Z,16.70
2022-07-27T00:24:12.470Z,16.59
2022-07-27T00:26:39.263Z,16.60
2022-07-27T00:29:06.204Z,16.47
2022-07-27T00:31:33.184Z,16.30
2022-07-27T00:34:00.388Z,16.48
2022-07-27T00:36:27.242Z,16.48
2022-07-27T00:38:54.063Z,16.54
2022-07-27T00:41:20.857Z,16.64
2022-07-27T00:44:00.959Z,16.38
2022-07-27T00:46:29.257Z,16.04
2022-07-27T00:48:56.211Z,15.99
2022-07-27T00:51:23.691Z,15.92
2022-07-27T00:53:53.206Z,15.84
2022-07-27T00:56:20.751Z,16.15
2022-07-27T00:58:50.600Z,16.13
2022-07-27T01:01:21.684Z,15.96
2022-07-27T01:03:48.611Z,15.88
2022-07-27T01:06:16.603Z,16.19
2022-07-27T01:08:53.768Z,16.10
2022-07-27T01:11:20.794Z,16.10
2022-07-27T01:13:47.639Z,15.28
2022-07-27T01:16:14.674Z,15.23
2022-07-27T01:18:43.381Z,15.36
2022-07-27T01:21:10.373Z,15.26
2022-07-27T01:23:37.291Z,15.41
2022-07-27T01:26:05.844Z,15.14
2022-07-27T01:28:33.827Z,14.68
2022-07-27T01:31:00.806Z,14.75
2022-07-27T01:33:27.628Z,14.23
2022-07-27T01:35:57.568Z,14.13
2022-07-27T01:38:24.601Z,14.17
2022-07-27T01:40:54.031Z,14.50
2022-07-27T01:43:21.472Z,14.60
2022-07-27T01:45:49.465Z,14.49
2022-07-27T01:48:16.299Z,14.27
2022-07-27T01:50:43.664Z,14.24
2022-07-27T01:53:14.523Z,14.29
2022-07-27T01:55:41.363Z,14.28
2022-07-27T01:58:09.398Z,14.17
2022-07-27T02:00:37.069Z,14.60
2022-07-27T02:03:06.357Z,14.56
2022-07-27T02:05:33.442Z,14.55
2022-07-27T02:08:00.468Z,14.43
2022-07-27T02:10:27.485Z,14.38
2022-07-27T02:12:54.282Z,14.04
2022-07-27T02:15:25.916Z,14.08
2022-07-27T02:17:54.332Z,14.15
2022-07-27T02:20:24.372Z,14.24
2022-07-27T02:22:51.836Z,14.38
2022-07-27T02:25:19.731Z,14.37
2022-07-27T02:27:47.229Z,14.49
2022-07-27T02:30:14.846Z,14.18
2022-07-27T02:32:45.117Z,14.07
2022-07-27T02:35:19.224Z,14.12
2022-07-27T02:37:48.356Z,14.32
2022-07-27T02:40:17.690Z,14.20
2022-07-27T02:42:47.045Z,14.19
2022-07-27T02:45:15.650Z,14.36
2022-07-27T02:47:44.108Z,14.25
2022-07-27T02:50:11.219Z,14.26
2022-07-27T02:52:38.365Z,14.29
2022-07-27T02:55:06.678Z,14.38
2022-07-27T02:57:36.098Z,14.16
2022-07-27T03:00:06.051Z,13.80
2022-07-27T03:02:32.928Z,13.91
2022-07-27T03:04:59.780Z,13.76
2022-07-27T03:07:26.731Z,13.78
2022-07-27T03:09:53.976Z,13.84
2022-07-27T03:12:20.844Z,14.02
2022-07-27T03:14:47.657Z,13.76
2022-07-27T03:17:14.443Z,13.77
2022-07-27T03:19:41.565Z,13.81
2022-07-27T03:22:08.453Z,13.80
2022-07-27T03:24:35.255Z,13.48
2022-07-27T03:27:02.406Z,13.58
2022-07-27T03:29:29.602Z,13.67
2022-07-27T03:31:57.026Z,13.72
2022-07-27T03:34:23.932Z,13.56
2022-07-27T03:36:50.898Z,13.58
2022-07-27T03:39:18.396Z,13.76
2022-07-27T03:41:45.554Z,13.73
2022-07-27T03:44:12.418Z,13.67
2022-07-27T03:46:39.591Z,13.59
2022-07-27T03:49:14.677Z,13.57
2022-07-27T03:51:43.245Z,13.47
2022-07-27T03:54:10.619Z,13.68
2022-07-27T03:56:37.423Z,13.62
2022-07-27T03:59:05.013Z,13.96
2022-07-27T04:01:31.979Z,14.01
2022-07-27T04:03:58.834Z,14.02
2022-07-27T04:06:26.991Z,14.13
2022-07-27T04:08:59.415Z,14.24
2022-07-27T04:11:34.728Z,14.28
2022-07-27T04:14:07.251Z,14.44
2022-07-27T04:16:43.343Z,14.21
2022-07-27T04:19:10.486Z,14.41
2022-07-27T04:21:38.081Z,14.45
2022-07-27T04:24:05.777Z,14.52
2022-07-27T04:26:32.761Z,14.40
2022-07-27T04:28:59.548Z,14.22
2022-07-27T04:31:26.376Z,14.24
2022-07-27T04:33:53.183Z,14.31
2022-07-27T04:36:20.017Z,14.41
2022-07-27T04:38:47.390Z,14.55
2022-07-27T04:41:14.252Z,14.64
2022-07-27T04:43:41.064Z,14.67
2022-07-27T04:46:13.174Z,14.69
2022-07-27T04:48:42.213Z,14.71
2022-07-27T04:51:17.807Z,14.56
2022-07-27T04:53:53.432Z,14.39
2022-07-27T04:56:25.454Z,14.71
2022-07-27T04:58:52.262Z,14.73
2022-07-27T05:01:19.177Z,14.79
2022-07-27T05:03:46.169Z,14.64
2022-07-27T05:06:13.019Z,14.77
2022-07-27T05:08:39.861Z,14.71
2022-07-27T05:11:07.556Z,14.89
2022-07-27T05:13:38.354Z,15.04
2022-07-27T05:16:09.375Z,15.14
2022-07-27T05:18:38.613Z,15.09
2022-07-27T05:21:06.797Z,15.06
2022-07-27T05:23:34.829Z,15.22
2022-07-27T05:26:02.159Z,15.30
2022-07-27T05:28:29.438Z,15.26
2022-07-27T05:30:56.758Z,15.28
2022-07-27T05:33:23.994Z,15.42
2022-07-27T05:35:51.251Z,15.62
2022-07-27T05:38:24.434Z,15.60
2022-07-27T05:40:55.810Z,15.63
2022-07-27T05:43:22.633Z,15.44
2022-07-27T05:45:49.646Z,15.67
2022-07-27T05:48:16.600Z,15.68
2022-07-27T05:50:43.869Z,16.00
2022-07-27T05:53:25.072Z,15.96
2022-07-27T05:55:58.366Z,16.12
2022-07-27T05:58:28.151Z,16.31
2022-07-27T06:00:55.123Z,16.37
2022-07-27T06:03:22.901Z,16.28
2022-07-27T06:05:50.410Z,16.39
2022-07-27T06:08:17.335Z,16.66
2022-07-27T06:10:44.358Z,16.61
2022-07-27T06:13:14.527Z,16.86
2022-07-27T06:15:41.473Z,16.77
2022-07-27T06:18:15.047Z,17.14
2022-07-27T06:20:43.291Z,17.46
2022-07-27T06:23:11.167Z,17.49
2022-07-27T06:25:38.083Z,17.62
2022-07-27T06:28:06.100Z,17.75
2022-07-27T06:30:33.556Z,17.84
2022-07-27T06:33:00.956Z,18.06
2022-07-27T06:35:27.859Z,18.26
2022-07-27T06:37:54.986Z,18.37
2022-07-27T06:40:22.232Z,18.54
2022-07-27T06:42:49.442Z,18.42
2022-07-27T06:45:16.806Z,18.61
2022-07-27T06:47:48.980Z,18.84
2022-07-27T06:50:18.734Z,18.94
2022-07-27T06:52:45.572Z,18.99
2022-07-27T06:55:13.249Z,19.01
2022-07-27T06:57:40.360Z,19.17
2022-07-27T07:00:08.348Z,19.26
2022-07-27T07:02:35.301Z,19.46
2022-07-27T07:05:02.062Z,19.59
2022-07-27T07:07:28.918Z,19.82
2022-07-27T07:09:55.717Z,20.01
2022-07-27T07:12:22.800Z,20.24
2022-07-27T07:14:49.682Z,20.36
2022-07-27T07:17:16.534Z,20.32
2022-07-27T07:19:43.457Z,20.47
2022-07-27T07:22:10.303Z,20.46
2022-07-27T07:24:37.361Z,20.50
2022-07-27T07:27:04.375Z,20.54
2022-07-27T07:29:31.279Z,20.69
2022-07-27T07:31:58.221Z,20.58
2022-07-27T07:34:25.067Z,20.66
2022-07-27T07:36:51.867Z,20.74
2022-07-27T07:39:18.646Z,21.00
2022-07-27T07:41:45.534Z,21.11
2022-07-27T07:44:12.359Z,21.21
2022-07-27T07:46:41.569Z,21.39
2022-07-27T07:49:11.422Z,21.26
2022-07-27T07:51:38.515Z,21.38
2022-07-27T07:54:05.327Z,21.14
2022-07-27T07:56:32.155Z,21.14
2022-07-27T07:58:59.389Z,20.88
2022-07-27T08:01:26.459Z,21.22
2022-07-27T08:03:53.286Z,21.36
2022-07-27T08:06:20.131Z,21.33
2022-07-27T08:08:46.922Z,21.60
2022-07-27T08:11:14.128Z,21.83
2022-07-27T08:13:40.917Z,22.08
2022-07-27T08:16:07.818Z,21.99
2022-07-27T08:18:34.638Z,22.16
2022-07-27T08:21:01.447Z,22.27
2022-07-27T08:23:28.328Z,22.22
2022-07-27T08:25:55.210Z,22.14
2022-07-27T08:28:22.102Z,22.27
2022-07-27T08:30:49.200Z,22.20
2022-07-27T08:33:16.709Z,22.19
2022-07-27T08:35:44.554Z,22.37
2022-07-27T08:38:11.899Z,22.50
2022-07-27T08:40:43.594Z,22.66
2022-07-27T08:43:23.415Z,22.94
2022-07-27T08:45:58.391Z,22.67
2022-07-27T08:48:30.857Z,22.84
2022-07-27T08:50:58.239Z,22.95
2022-07-27T08:53:25.554Z,23.04
2022-07-27T08:55:52.753Z,23.21
2022-07-27T08:58:19.726Z,23.28
2022-07-27T09:00:52.183Z,23.54
2022-07-27T09:03:22.076Z,23.72
2022-07-27T09:05:51.542Z,23.50
2022-07-27T09:08:30.282Z,23.56
2022-07-27T09:10:59.895Z,23.64
2022-07-27T09:13:29.533Z,23.56
2022-07-27T09:16:18.798Z,23.75
2022-07-27T09:18:47.703Z,23.78
2022-07-27T09:21:22.861Z,23.84
2022-07-27T09:23:54.500Z,23.76
2022-07-27T09:26:34.765Z,23.84
2022-07-27T09:29:12.168Z,23.57
2022-07-27T09:31:52.358Z,23.23
2022-07-27T09:34:33.462Z,23.51
2022-07-27T09:37:05.762Z,23.47
2022-07-27T09:39:33.003Z,23.53
2022-07-27T09:42:02.770Z,23.17
2022-07-27T09:44:53.472Z,23.21
2022-07-27T09:47:30.586Z,23.48
2022-07-27T09:50:17.719Z,23.51
2022-07-27T09:52:44.868Z,23.99
2022-07-27T09:55:11.771Z,23.83
2022-07-27T09:57:58.958Z,23.86
2022-07-27T10:00:27.483Z,23.93
2022-07-27T10:02:55.427Z,24.13
2022-07-27T10:05:23.190Z,24.34
2022-07-27T10:07:52.360Z,24.42
2022-07-27T10:10:20.252Z,24.49
2022-07-27T10:12:53.996Z,24.27
2022-07-27T10:15:22.391Z,24.66
2022-07-27T10:18:02.169Z,24.75
2022-07-27T10:20:32.403Z,24.84
2022-07-27T10:23:00.161Z,25.14
2022-07-27T10:25:34.300Z,25.53
2022-07-27T10:28:11.983Z,25.11
2022-07-27T10:30:39.509Z,25.36
2022-07-27T10:33:43.681Z,24.78
2022-07-27T10:36:39.377Z,25.08
2022-07-27T10:39:08.221Z,25.21
2022-07-27T10:41:43.899Z,25.40
2022-07-27T10:44:21.519Z,25.28
2022-07-27T10:47:01.951Z,25.06
2022-07-27T10:49:40.252Z,25.37
2022-07-27T10:52:07.334Z,25.40
2022-07-27T10:54:39.843Z,25.60
2022-07-27T10:57:09.361Z,25.53
2022-07-27T11:00:07.599Z,25.72
2022-07-27T11:02:42.847Z,25.60
2022-07-27T11:05:57.931Z,26.13
2022-07-27T11:10:48.701Z,26.29
2022-07-27T11:13:22.579Z,25.89
2022-07-27T11:16:22.811Z,25.18
2022-07-27T11:19:06.082Z,25.66
2022-07-27T11:21:38.564Z,25.44
2022-07-27T11:24:15.147Z,25.06
2022-07-27T11:26:49.504Z,24.94
2022-07-27T11:29:20.258Z,24.54
2022-07-27T11:31:56.589Z,24.66
2022-07-27T11:34:42.273Z,24.78
2022-07-27T11:37:23.170Z,24.97
2022-07-27T11:40:13.909Z,25.07
2022-07-27T11:42:48.031Z,25.41
2022-07-27T11:45:29.772Z,25.40
2022-07-27T11:47:58.218Z,25.81
2022-07-27T11:50:25.076Z,25.52
2022-07-27T11:53:01.776Z,25.79
2022-07-27T11:55:28.976Z,25.89
2022-07-27T11:58:04.558Z,25.82
2022-07-27T12:00:42.111Z,25.89
2022-07-27T12:03:47.275Z,25.96
2022-07-27T12:06:14.719Z,26.31
2022-07-27T12:08:41.554Z,26.66
2022-07-27T12:11:08.342Z,26.81
2022-07-27T12:13:36.400Z,26.71
2022-07-27T12:16:03.376Z,26.72
2022-07-27T12:18:43.638Z,26.23
2022-07-27T12:21:20.450Z,26.28
2022-07-27T12:23:53.461Z,25.79
2022-07-27T12:26:25.496Z,25.91
2022-07-27T12:29:12.494Z,26.21
2022-07-27T12:31:49.109Z,26.38
2022-07-27T12:34:16.271Z,26.16
2022-07-27T12:36:43.556Z,26.18
2022-07-27T12:39:29.930Z,26.62
2022-07-27T12:42:08.141Z,26.88
2022-07-27T12:44:37.957Z,26.13
2022-07-27T12:47:28.005Z,26.09
2022-07-27T12:50:14.471Z,26.33
2022-07-27T12:52:53.463Z,26.60
2022-07-27T12:55:22.488Z,26.56
2022-07-27T12:57:56.031Z,26.65
2022-07-27T13:00:31.027Z,26.90
2022-07-27T13:03:02.091Z,27.11
2022-07-27T13:05:29.271Z,27.16
2022-07-27T13:07:56.682Z,27.50
2022-07-27T13:10:23.712Z,26.76
2022-07-27T13:12:52.007Z,27.33
2022-07-27T13:15:20.498Z,27.29
2022-07-27T13:17:48.115Z,27.98
2022-07-27T13:20:17.236Z,28.12
2022-07-27T13:22:45.732Z,28.14
2022-07-27T13:25:15.442Z,28.23
2022-07-27T13:27:45.441Z,28.34
2022-07-27T13:30:14.274Z,27.89
2022-07-27T13:32:42.327Z,28.04
2022-07-27T13:35:12.481Z,27.35
2022-07-27T13:37:40.204Z,27.34
2022-07-27T13:40:09.974Z,27.41
2022-07-27T13:42:38.059Z,27.16
2022-07-27T13:45:10.457Z,27.18
2022-07-27T13:47:41.988Z,27.77
2022-07-27T13:50:19.671Z,28.01
2022-07-27T13:52:49.804Z,28.11
2022-07-27T13:55:17.995Z,27.86
2022-07-27T13:57:46.876Z,28.39
2022-07-27T14:00:15.626Z,28.56
2022-07-27T14:02:43.333Z,28.54
2022-07-27T14:05:13.070Z,28.53
2022-07-27T14:07:42.466Z,28.29
2022-07-27T14:10:30.480Z,28.35
2022-07-27T14:13:07.741Z,28.18
2022-07-27T14:15:53.519Z,28.19
2022-07-27T14:18:23.065Z,28.20
2022-07-27T14:20:50.008Z,28.20
2022-07-27T14:23:17.117Z,28.01
2022-07-27T14:25:44.142Z,27.94
2022-07-27T14:28:11.069Z,28.49
2022-07-27T14:30:38.128Z,28.54
2022-07-27T14:33:04.911Z,28.20
2022-07-27T14:35:34.604Z,28.56
2022-07-27T14:38:04.495Z,28.68
2022-07-27T14:40:31.314Z,28.71
2022-07-27T14:42:58.111Z,28.38
2022-07-27T14:45:24.968Z,28.61
2022-07-27T14:48:13.237Z,28.88
2022-07-27T14:50:41.810Z,29.37
2022-07-27T14:53:08.936Z,29.75
2022-07-27T14:55:37.314Z,29.47
2022-07-27T14:58:04.144Z,29.26
2022-07-27T15:00:36.154Z,28.94
2022-07-27T15:03:05.798Z,28.60
2022-07-27T15:05:33.465Z,28.67
2022-07-27T15:08:16.646Z,27.90
2022-07-27T15:10:44.159Z,27.63
2022-07-27T15:13:11.014Z,27.28
2022-07-27T15:15:38.092Z,27.17
2022-07-27T15:18:06.262Z,27.48
2022-07-27T15:20:36.879Z,27.67
2022-07-27T15:23:04.256Z,27.65
2022-07-27T15:25:31.098Z,27.72
2022-07-27T15:27:58.126Z,27.52
2022-07-27T15:30:24.961Z,27.04
2022-07-27T15:32:51.760Z,27.45
2022-07-27T15:35:18.691Z,27.74
2022-07-27T15:37:54.334Z,27.57
2022-07-27T15:40:38.502Z,27.44
2022-07-27T15:43:14.645Z,27.13
2022-07-27T15:45:48.414Z,26.96
2022-07-27T15:48:18.231Z,27.00
2022-07-27T15:50:49.257Z,26.90
2022-07-27T15:53:17.057Z,27.00
2022-07-27T15:55:44.984Z,27.11
2022-07-27T15:58:13.567Z,27.03
2022-07-27T16:00:41.703Z,27.02
2022-07-27T16:03:10.931Z,26.59
2022-07-27T16:05:41.269Z,26.57
2022-07-27T16:08:09.988Z,26.56
2022-07-27T16:10:39.003Z,26.69
2022-07-27T16:13:07.462Z,26.50
2022-07-27T16:15:53.518Z,26.31
2022-07-27T16:18:20.434Z,26.22
2022-07-27T16:20:47.307Z,26.48
2022-07-27T16:23:18.148Z,26.09
2022-07-27T16:26:04.511Z,26.16
2022-07-27T16:28:34.644Z,26.12
2022-07-27T16:31:02.810Z,25.90
2022-07-27T16:33:30.384Z,26.17
2022-07-27T16:36:03.160Z,26.45
2022-07-27T16:38:29.992Z,26.66
2022-07-27T16:40:59.860Z,26.93
2022-07-27T16:43:38.018Z,26.66
2022-07-27T16:46:10.835Z,26.96
2022-07-27T16:48:41.710Z,26.88
2022-07-27T16:51:13.792Z,26.48
2022-07-27T16:53:46.429Z,26.21
2022-07-27T16:56:13.262Z,26.43
2022-07-27T16:58:40.926Z,26.32
2022-07-27T17:01:09.194Z,26.36
2022-07-27T17:03:37.706Z,25.71
2022-07-27T17:06:06.772Z,25.96
2022-07-27T17:08:35.961Z,25.82
2022-07-27T17:11:02.947Z,25.87
2022-07-27T17:13:33.914Z,25.59
2022-07-27T17:16:06.336Z,25.75
2022-07-27T17:18:40.266Z,25.59
2022-07-27T17:21:12.825Z,25.37
2022-07-27T17:23:42.086Z,25.46
2022-07-27T17:26:10.035Z,25.10
2022-07-27T17:28:39.638Z,25.32
2022-07-27T17:31:10.530Z,25.36
2022-07-27T17:33:39.175Z,25.43
2022-07-27T17:36:12.301Z,25.41
2022-07-27T17:38:46.200Z,25.04
2022-07-27T17:41:19.208Z,25.20
2022-07-27T17:43:48.713Z,25.28
2022-07-27T17:46:15.810Z,25.33
2022-07-27T17:48:42.733Z,25.26
2022-07-27T17:51:10.722Z,25.08
2022-07-27T17:53:38.210Z,24.83
2022-07-27T17:56:05.782Z,24.69
2022-07-27T17:58:32.717Z,24.74
2022-07-27T18:00:59.641Z,24.64
2022-07-27T18:03:28.192Z,24.67
2022-07-27T18:05:55.167Z,24.68
2022-07-27T18:08:22.044Z,24.55
2022-07-27T18:10:51.127Z,24.59
2022-07-27T18:13:18.139Z,24.54
2022-07-27T18:15:47.745Z,24.45
2022-07-27T18:18:16.622Z,23.95
2022-07-27T18:20:46.332Z,23.58
2022-07-27T18:23:14.260Z,23.78
2022-07-27T18:25:41.171Z,23.53
2022-07-27T18:28:08.055Z,23.35
2022-07-27T18:30:34.947Z,23.73
2022-07-27T18:33:01.988Z,23.80
2022-07-27T18:35:28.871Z,23.95
2022-07-27T18:37:55.708Z,23.50
2022-07-27T18:40:22.744Z,23.59
2022-07-27T18:42:49.581Z,23.39
2022-07-27T18:45:16.498Z,23.42
2022-07-27T18:47:49.282Z,23.28
2022-07-27T18:50:16.834Z,22.94
2022-07-27T18:52:43.733Z,22.88
2022-07-27T18:55:10.866Z,23.01
2022-07-27T18:57:37.659Z,23.03
2022-07-27T19:00:06.439Z,23.26
2022-07-27T19:02:38.753Z,23.18
2022-07-27T19:05:07.475Z,22.74
2022-07-27T19:07:37.356Z,22.86
2022-07-27T19:10:08.025Z,23.01
2022-07-27T19:12:35.175Z,22.94
2022-07-27T19:15:02.026Z,22.98
2022-07-27T19:17:28.799Z,22.93
2022-07-27T19:19:55.569Z,22.95
2022-07-27T19:22:22.407Z,22.89
2022-07-27T19:24:54.674Z,22.48
2022-07-27T19:27:21.976Z,22.08
2022-07-27T19:29:48.950Z,22.20
2022-07-27T19:32:16.940Z,22.12
2022-07-27T19:34:44.103Z,22.27
2022-07-27T19:37:11.638Z,22.23
2022-07-27T19:40:02.102Z,22.22
2022-07-27T19:42:25.291Z,22.22
2022-07-27T19:44:52.060Z,22.09
2022-07-27T19:47:19.046Z,21.83
2022-07-27T19:49:47.192Z,21.88
2022-07-27T19:52:14.055Z,21.84
2022-07-27T19:54:40.849Z,21.38
2022-07-27T19:57:07.910Z,21.47
2022-07-27T19:59:56.023Z,21.44
2022-07-27T20:02:21.859Z,21.37
2022-07-27T20:04:49.133Z,21.29
2022-07-27T20:07:15.978Z,21.22
2022-07-27T20:09:42.766Z,21.18
2022-07-27T20:12:10.940Z,21.02
2022-07-27T20:14:37.919Z,20.63
2022-07-27T20:17:05.953Z,20.33
2022-07-27T20:19:33.603Z,20.21
2022-07-27T20:22:01.267Z,20.34
2022-07-27T20:24:29.499Z,20.44
2022-07-27T20:26:57.330Z,20.42
2022-07-27T20:29:24.142Z,20.35
2022-07-27T20:31:52.273Z,20.11
2022-07-27T20:34:23.524Z,19.91
2022-07-27T20:36:50.573Z,19.83
2022-07-27T20:39:18.002Z,19.93
2022-07-27T20:41:45.675Z,19.93
2022-07-27T20:44:12.759Z,19.67
2022-07-27T20:46:39.582Z,19.42
2022-07-27T20:49:06.398Z,19.19
2022-07-27T20:51:33.331Z,19.10
2022-07-27T20:54:00.921Z,19.10
2022-07-27T20:56:27.726Z,18.87
2022-07-27T20:58:54.546Z,18.87
2022-07-27T21:01:21.722Z,18.84
2022-07-27T21:03:48.563Z,18.91
2022-07-27T21:06:15.454Z,18.96
2022-07-27T21:08:46.436Z,19.07
2022-07-27T21:11:13.822Z,19.23
2022-07-27T21:13:41.111Z,19.24
2022-07-27T21:16:08.197Z,19.13
2022-07-27T21:18:35.813Z,18.94
2022-07-27T21:21:03.062Z,18.74
2022-07-27T21:23:48.638Z,18.52
2022-07-27T21:26:18.190Z,18.57
2022-07-27T21:28:46.061Z,18.47
2022-07-27T21:31:12.881Z,18.35
2022-07-27T21:33:40.261Z,18.52
2022-07-27T21:36:07.819Z,18.43
2022-07-27T21:38:34.922Z,18.33
2022-07-27T21:41:01.829Z,18.26
2022-07-27T21:43:28.622Z,18.21
2022-07-27T21:45:55.515Z,18.01
2022-07-27T21:48:22.904Z,18.02
2022-07-27T21:50:50.011Z,18.17
2022-07-27T21:53:17.311Z,18.18
2022-07-27T21:55:44.074Z,18.24
2022-07-27T21:58:12.443Z,18.19
2022-07-27T22:00:39.651Z,18.21
2022-07-27T22:03:06.790Z,18.24
2022-07-27T22:05:34.357Z,18.19
2022-07-27T22:08:01.958Z,18.17
2022-07-27T22:10:30.502Z,17.82
2022-07-27T22:12:58.603Z,17.88
2022-07-27T22:15:26.039Z,17.76
2022-07-27T22:17:53.141Z,17.74
2022-07-27T22:20:21.242Z,17.80
2022-07-27T22:22:49.317Z,17.84
2022-07-27T22:25:16.480Z,17.80
2022-07-27T22:27:43.337Z,17.53
2022-07-27T22:30:10.420Z,17.49
2022-07-27T22:32:37.426Z,17.62
2022-07-27T22:35:05.165Z,17.59
2022-07-27T22:37:31.957Z,17.52
2022-07-27T22:39:59.231Z,17.44
2022-07-27T22:42:26.005Z,17.32
2022-07-27T22:47:25.135Z,17.25
2022-07-27T22:57:28.462Z,17.26
2022-07-27T23:05:00.161Z,17.23
2022-07-27T23:07:27.035Z,17.32
2022-07-27T23:12:26.136Z,17.43
2022-07-27T23:14:52.918Z,17.41
2022-07-27T23:17:19.720Z,17.37
2022-07-27T23:19:46.494Z,17.36
2022-07-27T23:24:46.111Z,17.17
2022-07-27T23:29:45.296Z,17.05
2022-07-27T23:37:16.222Z,17.03
2022-07-27T23:39:43.058Z,17.17
2022-07-27T23:42:09.820Z,17.22
2022-07-27T23:44:36.583Z,17.13
2022-07-27T23:49:36.279Z,17.12
2022-07-27T23:59:43.218Z,16.94
